Blacksville, West Virginia
Current Conditions -  °F | °C
As of 9:53 PM on Monday 20 Oct 2014 (Local Time) from KMGW Reporting Station
Light Rain Light Rain  
Wind Chill: 54°   Ceiling: 6000
Heat Index: 54°   Visibility: 10mi
Dew Point: 45°   Wind: 3mph
Humidity: 72%   Direction: 180°S
Pressure: 29.92"   Gusts: NA
Location:  39.72°N, 80.21°W
Report Text: KMGW 210153Z 18003KT 10SM -RA SCT049 BKN060 OVC070 12/07 A2992 RMK AO2 RAB0055E22B40 SLP134 P0001 T01220072
Loading
Personal Weather Stations






























Interactive Weather Map
Tropical Storm Tracking
New forecast layout! Learn more

10-Day Weather Forecast

Advertisements
Track Severe Weather on mobile